Time;durP1;ratioP1;P1;durP2;ratioP2;P2;SDS_P1;SDS_P2;PMS_P1;PMS_P2;Temp;Humidity;BMP_temperature;BMP_pressure;BME280_temperature;BME280_humidity;BME280_pressure;Samples;Min_cycle;Max_cycle;Signal;HPM_P1;HPM_P2
2022/08/06 00:02:24;;;;;;;10.57;3.83;;;;;;;;;;5074107;28;20051;-60
2022/08/06 00:04:50;;;;;;;16.75;3.90;;;;;;;;;;5074195;28;20028;-57
2022/08/06 00:07:16;;;;;;;5.80;4.10;;;;;;;;;;5056263;28;20028;-53
2022/08/06 00:09:42;;;;;;;14.35;5.78;;;;;;;;;;5073827;28;20021;-45
2022/08/06 00:12:08;;;;;;;9.18;4.10;;;;;;;;;;5073856;28;20024;-61
2022/08/06 00:14:34;;;;;;;17.08;3.60;;;;;;;;;;5073719;28;20031;-50
2022/08/06 00:17:00;;;;;;;11.07;4.20;;;;;;;;;;5074044;28;20028;-40
2022/08/06 00:19:25;;;;;;;15.45;4.28;;;;;;;;;;5073704;28;20032;-44
2022/08/06 00:21:51;;;;;;;10.23;4.05;;;;;;;;;;5074014;28;20025;-44
2022/08/06 00:24:17;;;;;;;18.73;4.85;;;;;;;;;;5073611;28;20388;-40
2022/08/06 00:26:43;;;;;;;13.52;3.95;;;;;;;;;;5073600;28;20028;-53
2022/08/06 00:29:09;;;;;;;6.88;3.72;;;;;;;;;;5073547;28;20029;-45
2022/08/06 00:31:35;;;;;;;9.90;3.65;;;;;;;;;;5073327;28;20035;-59
2022/08/06 00:34:02;;;;;;;6.47;3.38;;;;;;;;;;5073783;28;20108;-53
2022/08/06 00:36:29;;;;;;;9.93;4.07;;;;;;;;;;5072868;28;20453;-61
2022/08/06 00:38:55;;;;;;;7.35;3.65;;;;;;;;;;5073426;28;20428;-40
2022/08/06 00:41:22;;;;;;;18.40;4.03;;;;;;;;;;5073659;28;20182;-40
2022/08/06 00:43:47;;;;;;;16.15;4.30;;;;;;;;;;5073261;28;20024;-61
2022/08/06 00:46:13;;;;;;;18.15;3.85;;;;;;;;;;5073243;28;20035;-53
2022/08/06 00:48:38;;;;;;;8.13;3.63;;;;;;;;;;5073162;28;20024;-54
2022/08/06 00:51:04;;;;;;;12.77;3.95;;;;;;;;;;5072981;28;20021;-62
2022/08/06 00:53:30;;;;;;;9.25;3.50;;;;;;;;;;5073033;28;20097;-55
2022/08/06 00:55:55;;;;;;;6.88;3.45;;;;;;;;;;5073334;28;20043;-56
2022/08/06 00:58:21;;;;;;;10.02;3.95;;;;;;;;;;5073313;28;20480;-50
2022/08/06 01:00:46;;;;;;;9.90;3.88;;;;;;;;;;5073272;28;20113;-60
2022/08/06 01:03:16;;;;;;;9.70;4.22;;;;;;;;;;5055405;28;20028;-58
2022/08/06 01:05:42;;;;;;;5.60;3.83;;;;;;;;;;5073232;28;20025;-47
2022/08/06 01:08:08;;;;;;;16.83;3.83;;;;;;;;;;5072886;28;20143;-40
2022/08/06 01:10:33;;;;;;;8.52;3.53;;;;;;;;;;5073038;28;20056;-55
2022/08/06 01:12:59;;;;;;;8.27;3.78;;;;;;;;;;5072769;28;20036;-56
2022/08/06 01:15:24;;;;;;;9.07;3.70;;;;;;;;;;5072763;28;20480;-48
2022/08/06 01:18:00;;;;;;;9.80;3.75;;;;;;;;;;5072749;28;20043;-51
2022/08/06 01:20:53;;;;;;;10.77;3.78;;;;;;;;;;5072816;28;20108;-51
2022/08/06 01:23:36;;;;;;;6.35;3.45;;;;;;;;;;5072726;28;20516;-41
2022/08/06 01:26:30;;;;;;;10.80;3.30;;;;;;;;;;5072651;28;20070;-61
2022/08/06 01:29:00;;;;;;;4.70;3.20;;;;;;;;;;5072625;28;20034;-60
2022/08/06 01:31:38;;;;;;;6.70;3.92;;;;;;;;;;5072530;28;20033;-61
2022/08/06 01:34:13;;;;;;;6.22;3.80;;;;;;;;;;5072572;28;20031;-58
2022/08/06 01:37:22;;;;;;;6.65;3.47;;;;;;;;;;5072825;28;20366;-60
2022/08/06 01:39:52;;;;;;;4.32;3.05;;;;;;;;;;5071905;28;20097;-62
2022/08/06 01:42:20;;;;;;;6.32;3.38;;;;;;;;;;5072487;28;20436;-42
2022/08/06 01:44:47;;;;;;;5.43;3.03;;;;;;;;;;5072436;28;20041;-55
2022/08/06 01:47:16;;;;;;;5.72;3.40;;;;;;;;;;5072168;28;20469;-45
2022/08/06 01:49:49;;;;;;;11.20;3.83;;;;;;;;;;5072435;28;20059;-63
2022/08/06 01:52:16;;;;;;;5.05;3.15;;;;;;;;;;5054236;28;20081;-41
2022/08/06 01:54:45;;;;;;;5.97;3.63;;;;;;;;;;5072512;28;20048;-52
2022/08/06 01:57:12;;;;;;;4.47;3.25;;;;;;;;;;5072523;28;20031;-57
2022/08/06 01:59:43;;;;;;;4.32;3.33;;;;;;;;;;5072468;28;20020;-40
2022/08/06 02:02:14;;;;;;;5.15;3.42;;;;;;;;;;5072318;28;20116;-40
2022/08/06 02:04:42;;;;;;;6.70;3.63;;;;;;;;;;5072286;28;20555;-61
2022/08/06 02:07:10;;;;;;;4.78;3.40;;;;;;;;;;5054554;28;20571;-41
2022/08/06 02:09:38;;;;;;;3.72;3.30;;;;;;;;;;5072403;28;20031;-59
2022/08/06 02:12:08;;;;;;;8.55;3.60;;;;;;;;;;5072251;28;20028;-61
2022/08/06 02:14:38;;;;;;;12.30;3.75;;;;;;;;;;5072137;28;20380;-48
2022/08/06 02:17:05;;;;;;;8.90;3.20;;;;;;;;;;5071992;28;20032;-58
2022/08/06 02:19:32;;;;;;;5.13;3.10;;;;;;;;;;5072393;28;20488;-43
2022/08/06 02:22:01;;;;;;;7.28;3.72;;;;;;;;;;5072331;28;20071;-52
2022/08/06 02:24:29;;;;;;;5.55;3.70;;;;;;;;;;5072275;28;20377;-49
2022/08/06 02:26:56;;;;;;;4.40;3.70;;;;;;;;;;5072314;28;20052;-40
2022/08/06 02:29:24;;;;;;;4.93;3.72;;;;;;;;;;5072277;28;20029;-54
2022/08/06 02:31:51;;;;;;;5.78;4.00;;;;;;;;;;5071934;28;20104;-53
2022/08/06 02:34:17;;;;;;;3.90;3.60;;;;;;;;;;5072231;28;20474;-45
2022/08/06 02:36:49;;;;;;;7.95;3.50;;;;;;;;;;5072184;28;20146;-57
2022/08/06 02:39:22;;;;;;;3.63;3.33;;;;;;;;;;5072045;28;20454;-54
2022/08/06 02:42:14;;;;;;;4.65;3.50;;;;;;;;;;5072188;28;20033;-40
2022/08/06 02:44:46;;;;;;;8.98;3.90;;;;;;;;;;5071928;28;20059;-58
2022/08/06 02:47:21;;;;;;;5.93;4.53;;;;;;;;;;5071950;28;20532;-60
2022/08/06 02:49:50;;;;;;;5.38;3.65;;;;;;;;;;5072121;28;20108;-54
2022/08/06 02:52:21;;;;;;;11.45;3.97;;;;;;;;;;5071552;28;20053;-60
2022/08/06 02:54:55;;;;;;;4.60;3.33;;;;;;;;;;5071834;28;20074;-61
2022/08/06 02:57:24;;;;;;;4.15;3.75;;;;;;;;;;5072026;28;20074;-40
2022/08/06 02:59:54;;;;;;;4.22;3.50;;;;;;;;;;5073875;28;20077;-57
2022/08/06 03:02:23;;;;;;;4.28;3.33;;;;;;;;;;5075557;28;20055;-61
2022/08/06 03:04:49;;;;;;;5.97;4.10;;;;;;;;;;5075307;28;20032;-59
2022/08/06 03:07:17;;;;;;;5.07;3.60;;;;;;;;;;5075502;28;20108;-40
2022/08/06 03:09:46;;;;;;;4.32;3.70;;;;;;;;;;5075214;28;20024;-59
2022/08/06 03:12:13;;;;;;;4.78;3.55;;;;;;;;;;5075340;28;20028;-58
2022/08/06 03:14:42;;;;;;;7.22;3.55;;;;;;;;;;5075021;28;20021;-49
2022/08/06 03:17:10;;;;;;;5.35;3.97;;;;;;;;;;5075298;28;20107;-55
2022/08/06 03:19:37;;;;;;;8.63;3.80;;;;;;;;;;5074919;28;20029;-55
2022/08/06 03:22:04;;;;;;;8.60;3.72;;;;;;;;;;5074890;28;20551;-44
2022/08/06 03:24:31;;;;;;;7.47;4.60;;;;;;;;;;5074874;28;20511;-56
2022/08/06 03:26:58;;;;;;;16.90;4.32;;;;;;;;;;5074837;28;20024;-53
2022/08/06 03:29:26;;;;;;;6.65;3.97;;;;;;;;;;5075026;28;20024;-50
2022/08/06 03:31:52;;;;;;;14.55;4.63;;;;;;;;;;5074905;28;20025;-44
2022/08/06 03:34:18;;;;;;;6.82;4.25;;;;;;;;;;5074916;28;20052;-59
2022/08/06 03:36:45;;;;;;;9.70;4.53;;;;;;;;;;5074628;28;20025;-61
2022/08/06 03:39:12;;;;;;;13.82;4.47;;;;;;;;;;5074544;28;20107;-44
2022/08/06 03:41:39;;;;;;;20.42;4.30;;;;;;;;;;5074541;28;20028;-57
2022/08/06 03:44:05;;;;;;;14.57;4.80;;;;;;;;;;5074596;28;20033;-61
2022/08/06 03:46:40;;;;;;;8.32;4.18;;;;;;;;;;5074704;28;20032;-61
2022/08/06 03:49:11;;;;;;;14.43;5.20;;;;;;;;;;5074784;28;20024;-52
2022/08/06 03:51:37;;;;;;;14.88;5.00;;;;;;;;;;5074363;28;20025;-55
2022/08/06 03:54:06;;;;;;;18.10;4.93;;;;;;;;;;5074411;28;20082;-45
2022/08/06 03:56:33;;;;;;;18.48;4.75;;;;;;;;;;5074440;28;20031;-55
2022/08/06 03:59:02;;;;;;;11.10;4.70;;;;;;;;;;5074455;28;20036;-47
2022/08/06 04:01:32;;;;;;;7.72;4.00;;;;;;;;;;5074213;28;20035;-55
2022/08/06 04:03:59;;;;;;;6.57;4.00;;;;;;;;;;5074131;28;20033;-57
2022/08/06 04:06:26;;;;;;;6.55;3.80;;;;;;;;;;5074189;28;20028;-52
2022/08/06 04:08:52;;;;;;;11.75;4.60;;;;;;;;;;5074014;28;20016;-44
2022/08/06 04:11:18;;;;;;;7.35;4.20;;;;;;;;;;5074234;28;20024;-41
2022/08/06 04:13:44;;;;;;;8.52;4.15;;;;;;;;;;5073992;28;20025;-41
2022/08/06 04:16:14;;;;;;;14.63;5.03;;;;;;;;;;5074215;28;20021;-41
2022/08/06 04:18:41;;;;;;;5.25;3.90;;;;;;;;;;5074097;28;20447;-57
2022/08/06 04:21:11;;;;;;;10.38;4.18;;;;;;;;;;5074081;28;20039;-41
2022/08/06 04:23:38;;;;;;;7.40;4.00;;;;;;;;;;5073739;28;20028;-56
2022/08/06 04:26:06;;;;;;;6.65;3.55;;;;;;;;;;5073764;28;20039;-42
2022/08/06 04:28:35;;;;;;;9.48;4.05;;;;;;;;;;5073978;28;20044;-51
2022/08/06 04:31:02;;;;;;;4.72;3.75;;;;;;;;;;5073633;28;20596;-42
2022/08/06 04:33:30;;;;;;;6.22;3.70;;;;;;;;;;5073869;28;20033;-43
2022/08/06 04:35:58;;;;;;;12.05;3.63;;;;;;;;;;5073549;28;20107;-42
2022/08/06 04:38:24;;;;;;;11.90;3.88;;;;;;;;;;5073764;28;20025;-47
2022/08/06 04:40:50;;;;;;;8.23;3.20;;;;;;;;;;5073669;28;20020;-41
2022/08/06 04:43:15;;;;;;;11.80;4.47;;;;;;;;;;5073630;28;20082;-41
2022/08/06 04:45:42;;;;;;;11.70;3.78;;;;;;;;;;5073626;28;20385;-59
2022/08/06 04:48:10;;;;;;;11.00;3.20;;;;;;;;;;5073281;28;20523;-60
2022/08/06 04:50:37;;;;;;;12.05;3.95;;;;;;;;;;5073485;28;20040;-58
2022/08/06 04:53:11;;;;;;;12.35;3.85;;;;;;;;;;5073067;28;20048;-41
2022/08/06 04:55:37;;;;;;;7.22;3.40;;;;;;;;;;5073072;28;20134;-40
2022/08/06 04:58:05;;;;;;;15.13;3.60;;;;;;;;;;5073052;28;20033;-58
2022/08/06 05:00:47;;;;;;;15.10;3.67;;;;;;;;;;5073341;28;20028;-40
2022/08/06 05:03:13;;;;;;;5.63;3.30;;;;;;;;;;5073165;28;20036;-58
2022/08/06 05:06:17;;;;;;;8.60;3.55;;;;;;;;;;5073130;28;20029;-40
2022/08/06 05:08:46;;;;;;;11.48;4.15;;;;;;;;;;4971926;28;20030;-60
2022/08/06 05:11:26;;;;;;;6.82;3.38;;;;;;;;;;5054453;28;20029;-42
2022/08/06 05:13:57;;;;;;;;;;;;;;;;;;5073263;28;20020;-44
2022/08/06 05:16:25;;;;;;;5.80;3.28;;;;;;;;;;5072786;28;20381;-41
2022/08/06 05:18:57;;;;;;;12.13;4.05;;;;;;;;;;5072998;28;20028;-57
2022/08/06 05:21:28;;;;;;;7.40;3.60;;;;;;;;;;5072702;28;20032;-52
2022/08/06 05:23:54;;;;;;;9.07;2.83;;;;;;;;;;5072945;28;20380;-58
2022/08/06 05:26:21;;;;;;;16.63;3.70;;;;;;;;;;5072637;28;20469;-60
2022/08/06 05:28:47;;;;;;;15.38;3.38;;;;;;;;;;5072581;28;20115;-52
2022/08/06 05:31:13;;;;;;;8.55;2.95;;;;;;;;;;5072431;28;20060;-46
2022/08/06 05:33:39;;;;;;;5.35;2.78;;;;;;;;;;5072838;28;20027;-46
2022/08/06 05:36:07;;;;;;;7.68;2.90;;;;;;;;;;5072468;28;20472;-41
2022/08/06 05:38:35;;;;;;;5.13;2.70;;;;;;;;;;5072743;28;20044;-57
2022/08/06 05:41:01;;;;;;;4.63;2.70;;;;;;;;;;5072755;28;20039;-42
2022/08/06 05:43:26;;;;;;;7.20;2.30;;;;;;;;;;5072702;28;20033;-57
2022/08/06 05:45:57;;;;;;;8.38;3.22;;;;;;;;;;5072403;28;20108;-41
2022/08/06 05:48:24;;;;;;;2.85;2.50;;;;;;;;;;5072762;28;20028;-56
2022/08/06 05:50:54;;;;;;;6.60;2.50;;;;;;;;;;5072657;28;20079;-54
2022/08/06 05:53:30;;;;;;;4.72;2.85;;;;;;;;;;5072020;28;20045;-57
2022/08/06 05:56:03;;;;;;;9.10;2.80;;;;;;;;;;5072572;28;20036;-58
2022/08/06 05:58:35;;;;;;;11.95;3.20;;;;;;;;;;5072261;28;20033;-59
2022/08/06 06:01:05;;;;;;;6.53;2.70;;;;;;;;;;5072455;28;20063;-58
2022/08/06 06:03:31;;;;;;;5.18;2.55;;;;;;;;;;5072161;28;20392;-55
2022/08/06 06:05:59;;;;;;;4.72;2.80;;;;;;;;;;5072059;28;20021;-57
2022/08/06 06:08:25;;;;;;;8.30;2.53;;;;;;;;;;5072421;28;20032;-54
2022/08/06 06:10:51;;;;;;;10.35;2.78;;;;;;;;;;5072133;28;20033;-42
2022/08/06 06:13:17;;;;;;;5.95;2.80;;;;;;;;;;5072255;28;20039;-60
2022/08/06 06:15:48;;;;;;;7.80;3.17;;;;;;;;;;5072073;28;20024;-60
2022/08/06 06:18:20;;;;;;;8.88;3.25;;;;;;;;;;5072007;28;20017;-58
2022/08/06 06:20:57;;;;;;;61.78;5.35;;;;;;;;;;5071947;28;20035;-50
2022/08/06 06:23:26;;;;;;;6.97;3.40;;;;;;;;;;5072026;28;20067;-60
2022/08/06 06:26:08;;;;;;;3.53;2.50;;;;;;;;;;5072235;28;20028;-49
2022/08/06 06:29:03;;;;;;;5.43;3.00;;;;;;;;;;5072193;28;20021;-57
2022/08/06 06:31:32;;;;;;;4.50;2.70;;;;;;;;;;5072139;28;20028;-58
2022/08/06 06:34:07;;;;;;;;;;;;;;;;;;5073191;28;20048;-58
2022/08/06 06:37:01;;;;;;;13.27;3.17;;;;;;;;;;5075819;28;19912;-60
2022/08/06 06:39:53;;;;;;;14.80;3.63;;;;;;;;;;5076055;28;20047;-52
2022/08/06 06:42:29;;;;;;;8.20;2.80;;;;;;;;;;5075091;28;20037;-60
2022/08/06 06:45:25;;;;;;;15.25;3.30;;;;;;;;;;5075627;28;20032;-44
2022/08/06 06:48:01;;;;;;;9.23;3.10;;;;;;;;;;5075577;28;20107;-59
2022/08/06 06:50:32;;;;;;;12.45;3.17;;;;;;;;;;5075809;28;20024;-59
2022/08/06 06:52:58;;;;;;;9.35;2.90;;;;;;;;;;5075186;28;20495;-43
2022/08/06 06:55:24;;;;;;;5.88;2.72;;;;;;;;;;5075354;28;20039;-43
2022/08/06 06:57:59;;;;;;;2.95;2.30;;;;;;;;;;5075623;28;20020;-58
2022/08/06 07:00:26;;;;;;;5.93;2.55;;;;;;;;;;5075293;28;20538;-56
2022/08/06 07:02:54;;;;;;;8.23;2.63;;;;;;;;;;5075377;28;20024;-59
2022/08/06 07:05:21;;;;;;;8.65;3.63;;;;;;;;;;5075273;28;20028;-42
2022/08/06 07:07:48;;;;;;;6.33;2.90;;;;;;;;;;5075082;28;20473;-59
2022/08/06 07:10:15;;;;;;;14.80;3.15;;;;;;;;;;5075141;28;20491;-59
2022/08/06 07:12:44;;;;;;;6.05;2.90;;;;;;;;;;5074957;28;20119;-54
2022/08/06 07:15:12;;;;;;;10.13;2.50;;;;;;;;;;5075271;28;20036;-49
2022/08/06 07:17:38;;;;;;;4.65;2.67;;;;;;;;;;5074994;28;20020;-59
2022/08/06 07:20:07;;;;;;;9.25;2.55;;;;;;;;;;5075117;28;20472;-59
2022/08/06 07:22:35;;;;;;;7.70;3.00;;;;;;;;;;5075000;28;20028;-58
2022/08/06 07:25:02;;;;;;;7.25;2.60;;;;;;;;;;5075104;28;20048;-59
2022/08/06 07:27:37;;;;;;;4.50;2.38;;;;;;;;;;5074777;28;20480;-57
2022/08/06 07:30:03;;;;;;;7.25;3.40;;;;;;;;;;5075077;28;20028;-58
2022/08/06 07:32:30;;;;;;;9.05;2.90;;;;;;;;;;5074560;28;20043;-59
2022/08/06 07:34:56;;;;;;;5.70;3.15;;;;;;;;;;5074890;28;20029;-58
2022/08/06 07:37:25;;;;;;;6.20;2.60;;;;;;;;;;5074886;28;20028;-59
2022/08/06 07:39:53;;;;;;;4.03;2.70;;;;;;;;;;5074637;28;20029;-60
2022/08/06 07:42:20;;;;;;;7.45;2.60;;;;;;;;;;5074863;28;20150;-58
2022/08/06 07:44:50;;;;;;;9.13;2.67;;;;;;;;;;5074039;28;20025;-59
2022/08/06 07:47:22;;;;;;;3.92;2.63;;;;;;;;;;5075000;28;20031;-58
2022/08/06 07:49:56;;;;;;;6.15;3.22;;;;;;;;;;5074637;28;20422;-60
2022/08/06 07:52:22;;;;;;;3.95;2.80;;;;;;;;;;5074055;28;20045;-59
2022/08/06 07:54:48;;;;;;;7.65;3.17;;;;;;;;;;5074568;28;20070;-56
2022/08/06 07:57:16;;;;;;;8.52;3.17;;;;;;;;;;5074486;28;20403;-53
2022/08/06 07:59:42;;;;;;;6.75;3.97;;;;;;;;;;5074228;28;20025;-56
2022/08/06 08:02:09;;;;;;;28.02;4.10;;;;;;;;;;5074055;28;20093;-55
2022/08/06 08:07:22;;;;;;;6.50;3.00;;;;;;;;;;5074370;28;20039;-44
2022/08/06 08:09:48;;;;;;;4.05;2.63;;;;;;;;;;5074300;28;20111;-59
2022/08/06 08:12:18;;;;;;;3.88;2.70;;;;;;;;;;5073803;28;20028;-58
2022/08/06 08:14:46;;;;;;;6.35;3.00;;;;;;;;;;5073941;28;20081;-59
2022/08/06 08:17:12;;;;;;;;;;;;;;;;;;5074562;28;20439;-57
2022/08/06 08:19:37;;;;;;;6.35;2.95;;;;;;;;;;5073799;28;19960;-60
2022/08/06 08:22:10;;;;;;;3.45;2.92;;;;;;;;;;5056091;28;20025;-59
2022/08/06 08:24:38;;;;;;;9.13;3.17;;;;;;;;;;5073978;28;20029;-60
2022/08/06 08:27:09;;;;;;;8.60;3.53;;;;;;;;;;5074074;28;20039;-60
2022/08/06 08:29:35;;;;;;;5.57;3.08;;;;;;;;;;5056124;28;20095;-59
2022/08/06 08:32:02;;;;;;;10.75;3.17;;;;;;;;;;5073762;28;20059;-59
2022/08/06 08:34:28;;;;;;;7.20;3.20;;;;;;;;;;5073453;28;20024;-43
2022/08/06 08:36:54;;;;;;;5.75;2.95;;;;;;;;;;5073191;28;20021;-48
2022/08/06 08:39:20;;;;;;;6.15;3.13;;;;;;;;;;5073335;28;20058;-58
2022/08/06 08:41:54;;;;;;;9.98;3.25;;;;;;;;;;5073697;28;20028;-59
2022/08/06 08:44:27;;;;;;;7.70;3.17;;;;;;;;;;5073176;28;20025;-45
2022/08/06 08:46:56;;;;;;;6.88;2.70;;;;;;;;;;5073320;28;20023;-59
2022/08/06 08:49:50;;;;;;;6.35;2.72;;;;;;;;;;5073443;28;20024;-50
2022/08/06 08:52:31;;;;;;;5.53;2.60;;;;;;;;;;5072749;28;20416;-58
2022/08/06 08:55:01;;;;;;;5.35;2.78;;;;;;;;;;5073410;28;20380;-59
2022/08/06 08:57:28;;;;;;;10.43;3.20;;;;;;;;;;5072412;28;20020;-57
2022/08/06 08:59:54;;;;;;;5.13;2.67;;;;;;;;;;5072549;28;20459;-44
2022/08/06 09:02:20;;;;;;;8.27;2.55;;;;;;;;;;5073090;28;20375;-57
2022/08/06 09:04:46;;;;;;;6.05;2.90;;;;;;;;;;5054986;28;20033;-49
2022/08/06 09:07:11;;;;;;;16.92;3.05;;;;;;;;;;5072635;28;20028;-58
2022/08/06 09:09:38;;;;;;;10.75;2.63;;;;;;;;;;5055039;28;20107;-45
2022/08/06 09:12:07;;;;;;;8.23;2.72;;;;;;;;;;5073006;28;20032;-43
2022/08/06 09:14:35;;;;;;;6.05;2.63;;;;;;;;;;5072808;28;20029;-59
2022/08/06 09:17:05;;;;;;;12.90;2.85;;;;;;;;;;5072631;28;20032;-42
2022/08/06 09:19:32;;;;;;;6.82;3.10;;;;;;;;;;5073128;28;20120;-53
2022/08/06 09:21:58;;;;;;;19.38;3.25;;;;;;;;;;5072879;28;20161;-57
2022/08/06 09:24:25;;;;;;;5.82;2.72;;;;;;;;;;5072657;28;20130;-59
2022/08/06 09:27:10;;;;;;;11.75;2.70;;;;;;;;;;5072738;28;20021;-54
2022/08/06 09:29:47;;;;;;;3.53;2.80;;;;;;;;;;5072242;28;20099;-58
2022/08/06 09:32:12;;;;;;;4.05;2.70;;;;;;;;;;5072466;28;20472;-60
2022/08/06 09:34:39;;;;;;;12.85;2.85;;;;;;;;;;5072268;28;20032;-59
2022/08/06 09:37:05;;;;;;;11.93;2.88;;;;;;;;;;5072441;28;20046;-41
2022/08/06 09:39:35;;;;;;;5.78;2.70;;;;;;;;;;5072615;28;20490;-59
2022/08/06 09:42:01;;;;;;;5.95;2.88;;;;;;;;;;5072482;28;20028;-58
2022/08/06 09:44:27;;;;;;;3.80;2.50;;;;;;;;;;5071933;28;20029;-57
2022/08/06 09:46:53;;;;;;;9.63;2.22;;;;;;;;;;5072243;28;20115;-54
2022/08/06 09:49:19;;;;;;;8.80;2.60;;;;;;;;;;5072528;28;20150;-58
2022/08/06 09:51:45;;;;;;;5.18;2.72;;;;;;;;;;5072089;28;20028;-56
2022/08/06 09:54:20;;;;;;;9.57;3.08;;;;;;;;;;5072061;28;20037;-58
2022/08/06 09:56:55;;;;;;;4.70;2.55;;;;;;;;;;5072389;28;20450;-59
2022/08/06 09:59:21;;;;;;;6.78;2.60;;;;;;;;;;5072590;28;20044;-58
2022/08/06 10:01:48;;;;;;;4.30;3.10;;;;;;;;;;5054670;28;20029;-43
2022/08/06 10:04:24;;;;;;;5.13;2.60;;;;;;;;;;5072492;28;20035;-59
2022/08/06 10:06:58;;;;;;;5.15;2.50;;;;;;;;;;5072339;28;20025;-42
2022/08/06 10:09:26;;;;;;;3.30;2.50;;;;;;;;;;5075392;28;20064;-43
2022/08/06 10:11:54;;;;;;;5.97;2.90;;;;;;;;;;5073944;28;20032;-53
2022/08/06 10:14:33;;;;;;;;;;;;;;;;;;5074661;28;20476;-41
2022/08/06 10:17:11;;;;;;;5.10;2.65;;;;;;;;;;5074709;28;19916;-41
2022/08/06 10:19:39;;;;;;;6.68;2.80;;;;;;;;;;5074576;28;20021;-48
2022/08/06 10:22:14;;;;;;;4.40;2.70;;;;;;;;;;5074939;28;20029;-45
2022/08/06 10:24:44;;;;;;;7.95;2.60;;;;;;;;;;5074485;28;20128;-43
2022/08/06 10:27:12;;;;;;;5.38;2.47;;;;;;;;;;5074565;28;20035;-51
2022/08/06 10:29:42;;;;;;;4.50;2.72;;;;;;;;;;5076006;28;20054;-39
2022/08/06 10:32:13;;;;;;;6.38;2.60;;;;;;;;;;5075909;28;20056;-47
2022/08/06 10:34:41;;;;;;;4.20;2.53;;;;;;;;;;5075749;28;20484;-41
2022/08/06 10:37:07;;;;;;;;;;;;;;;;;;5076051;28;20617;-40
2022/08/06 10:39:39;;;;;;;6.97;2.80;;;;;;;;;;5075897;28;19912;-40
2022/08/06 10:42:06;;;;;;;7.60;2.80;;;;;;;;;;5075662;28;20035;-41
2022/08/06 10:44:34;;;;;;;7.63;3.08;;;;;;;;;;5075438;28;20145;-40
2022/08/06 10:47:00;;;;;;;;;;;;;;;;;;5075858;28;20032;-41
2022/08/06 10:49:26;;;;;;;3.40;2.72;;;;;;;;;;5075341;28;19909;-49
2022/08/06 10:51:53;;;;;;;2.70;2.50;;;;;;;;;;5074868;28;20043;-47
2022/08/06 10:54:20;;;;;;;8.55;2.50;;;;;;;;;;5064817;28;20033;-45
2022/08/06 10:56:46;;;;;;;7.30;2.83;;;;;;;;;;5062735;28;20037;-60
2022/08/06 10:59:13;;;;;;;5.03;2.50;;;;;;;;;;5064905;28;20481;-52
2022/08/06 11:01:57;;;;;;;6.00;2.53;;;;;;;;;;5065870;28;20482;-43
2022/08/06 11:04:41;;;;;;;6.68;2.65;;;;;;;;;;5065802;28;20034;-41
2022/08/06 11:07:37;;;;;;;3.70;2.60;;;;;;;;;;5055439;28;20393;-42
2022/08/06 11:10:18;;;;;;;6.30;2.58;;;;;;;;;;5064233;28;20052;-46
2022/08/06 11:13:02;;;;;;;3.00;2.70;;;;;;;;;;5064426;28;20427;-43
2022/08/06 11:15:36;;;;;;;5.82;2.60;;;;;;;;;;5055224;28;20359;-41
2022/08/06 11:18:07;;;;;;;6.53;2.80;;;;;;;;;;5055342;28;20020;-51
2022/08/06 11:20:36;;;;;;;4.18;2.45;;;;;;;;;;5054550;28;20025;-42
2022/08/06 11:23:11;;;;;;;3.53;2.35;;;;;;;;;;5055284;28;20025;-41
2022/08/06 11:25:41;;;;;;;4.22;2.40;;;;;;;;;;5055184;28;20024;-41
2022/08/06 11:28:09;;;;;;;4.10;2.55;;;;;;;;;;5054604;28;20060;-41
2022/08/06 11:30:47;;;;;;;5.30;2.72;;;;;;;;;;5052927;28;20480;-42
2022/08/06 11:33:33;;;;;;;5.75;2.40;;;;;;;;;;5054791;28;20041;-48
2022/08/06 11:36:03;;;;;;;5.93;2.28;;;;;;;;;;5037161;28;20033;-42
2022/08/06 11:38:46;;;;;;;5.60;2.50;;;;;;;;;;5054961;28;20025;-41
2022/08/06 11:41:21;;;;;;;10.85;2.60;;;;;;;;;;5054595;28;20025;-58
2022/08/06 11:44:03;;;;;;;4.55;2.80;;;;;;;;;;5054573;28;20032;-43
2022/08/06 11:46:30;;;;;;;9.65;2.65;;;;;;;;;;5051588;28;20044;-54
2022/08/06 11:48:58;;;;;;;3.47;2.22;;;;;;;;;;5050637;28;20029;-44
2022/08/06 11:51:49;;;;;;;5.22;2.75;;;;;;;;;;5054234;28;20082;-42
2022/08/06 11:54:25;;;;;;;5.00;2.60;;;;;;;;;;5054182;28;20166;-41
2022/08/06 11:57:06;;;;;;;4.90;2.47;;;;;;;;;;5054326;28;20045;-41
2022/08/06 11:59:34;;;;;;;5.60;2.60;;;;;;;;;;5053956;28;20029;-46
2022/08/06 12:02:05;;;;;;;7.97;2.28;;;;;;;;;;5035517;28;20021;-42
2022/08/06 12:04:40;;;;;;;9.25;2.40;;;;;;;;;;5053834;28;20521;-42
2022/08/06 12:07:15;;;;;;;5.00;2.30;;;;;;;;;;5035939;28;20040;-41
2022/08/06 12:09:41;;;;;;;4.65;2.80;;;;;;;;;;5053913;28;20518;-42
2022/08/06 12:12:25;;;;;;;4.95;2.88;;;;;;;;;;5052607;28;20025;-41
2022/08/06 12:14:52;;;;;;;5.07;2.50;;;;;;;;;;5054068;28;20370;-41
2022/08/06 12:17:19;;;;;;;22.17;3.40;;;;;;;;;;5053869;28;20028;-45
2022/08/06 12:19:47;;;;;;;10.15;2.65;;;;;;;;;;5053809;28;20064;-42
2022/08/06 12:22:16;;;;;;;6.33;2.83;;;;;;;;;;5054127;28;20025;-52
2022/08/06 12:24:43;;;;;;;3.58;2.38;;;;;;;;;;5053836;28;20100;-46
2022/08/06 12:27:10;;;;;;;4.20;2.60;;;;;;;;;;5054007;28;20511;-59
2022/08/06 12:29:37;;;;;;;4.75;2.50;;;;;;;;;;5053598;28;20473;-59
2022/08/06 12:32:24;;;;;;;10.32;2.90;;;;;;;;;;5052428;28;20029;-59
2022/08/06 12:34:51;;;;;;;4.40;2.28;;;;;;;;;;5037184;28;20044;-51
2022/08/06 12:37:17;;;;;;;3.22;2.38;;;;;;;;;;5053337;28;20461;-51
2022/08/06 12:42:28;;;;;;;2.70;2.50;;;;;;;;;;5053306;28;20055;-50
2022/08/06 12:44:54;;;;;;;8.05;2.67;;;;;;;;;;5053240;28;20104;-47
2022/08/06 12:47:21;;;;;;;4.30;2.67;;;;;;;;;;5053303;28;20021;-48
2022/08/06 12:49:46;;;;;;;10.65;2.65;;;;;;;;;;5053206;28;20112;-52
2022/08/06 12:52:17;;;;;;;6.03;2.47;;;;;;;;;;5052940;28;20131;-41
2022/08/06 12:54:46;;;;;;;3.53;2.75;;;;;;;;;;5053169;28;20036;-45
2022/08/06 12:57:30;;;;;;;3.20;2.55;;;;;;;;;;5053072;28;20028;-41
2022/08/06 12:59:57;;;;;;;6.13;2.67;;;;;;;;;;5053208;28;20068;-54
2022/08/06 13:02:24;;;;;;;5.30;2.53;;;;;;;;;;5053271;28;20035;-50
2022/08/06 13:04:53;;;;;;;5.50;2.60;;;;;;;;;;5052956;28;20020;-41
2022/08/06 13:07:19;;;;;;;3.95;2.60;;;;;;;;;;5053004;28;20036;-41
2022/08/06 13:09:46;;;;;;;9.90;2.70;;;;;;;;;;5035433;28;20545;-41
2022/08/06 13:12:19;;;;;;;3.28;2.30;;;;;;;;;;5052626;28;20020;-41
2022/08/06 13:14:56;;;;;;;7.78;2.72;;;;;;;;;;5052935;28;20029;-43
2022/08/06 13:17:22;;;;;;;2.80;2.60;;;;;;;;;;5035772;28;20028;-42
2022/08/06 13:19:55;;;;;;;5.55;2.70;;;;;;;;;;5052999;28;20021;-41
2022/08/06 13:22:22;;;;;;;6.32;2.72;;;;;;;;;;5053004;28;20046;-40
2022/08/06 13:25:08;;;;;;;5.80;2.50;;;;;;;;;;5052682;28;20028;-41
2022/08/06 13:27:36;;;;;;;7.38;2.40;;;;;;;;;;5037726;28;20112;-43
2022/08/06 13:30:06;;;;;;;89.15;7.47;;;;;;;;;;5052611;28;20025;-46
2022/08/06 13:32:31;;;;;;;6.07;2.50;;;;;;;;;;5053032;28;20029;-42
2022/08/06 13:34:58;;;;;;;2.47;2.28;;;;;;;;;;5052377;28;20098;-55
2022/08/06 13:37:46;;;;;;;2.85;2.40;;;;;;;;;;5052798;28;20025;-57
2022/08/06 13:40:12;;;;;;;2.58;2.38;;;;;;;;;;5052454;28;20392;-55
2022/08/06 13:42:55;;;;;;;2.70;2.47;;;;;;;;;;5052033;28;20028;-54
2022/08/06 13:45:22;;;;;;;3.70;2.28;;;;;;;;;;5052669;28;20107;-55
2022/08/06 13:47:51;;;;;;;5.85;2.80;;;;;;;;;;5052366;28;20025;-41
2022/08/06 13:50:18;;;;;;;2.53;2.25;;;;;;;;;;5052239;28;20629;-41
2022/08/06 13:52:43;;;;;;;3.90;2.60;;;;;;;;;;5052169;28;20140;-43
2022/08/06 13:55:11;;;;;;;4.30;2.40;;;;;;;;;;5052460;28;20062;-42
2022/08/06 13:57:36;;;;;;;4.93;2.35;;;;;;;;;;5052510;28;20523;-44
2022/08/06 14:00:06;;;;;;;2.65;2.10;;;;;;;;;;5052181;28;20029;-47
2022/08/06 14:02:36;;;;;;;3.13;2.53;;;;;;;;;;5052120;28;20057;-43
2022/08/06 14:05:03;;;;;;;3.35;2.33;;;;;;;;;;5052268;28;20457;-42
2022/08/06 14:07:29;;;;;;;5.90;2.38;;;;;;;;;;5052182;28;20107;-40
2022/08/06 14:09:54;;;;;;;3.30;2.33;;;;;;;;;;5052342;28;20049;-41
2022/08/06 14:12:20;;;;;;;3.50;2.45;;;;;;;;;;5052030;28;20519;-49
2022/08/06 14:14:45;;;;;;;6.35;2.55;;;;;;;;;;5052050;28;20457;-41
2022/08/06 14:17:11;;;;;;;5.13;2.10;;;;;;;;;;5052021;28;20029;-40
2022/08/06 14:19:37;;;;;;;4.78;2.50;;;;;;;;;;5052044;28;20036;-51
2022/08/06 14:22:03;;;;;;;11.57;3.10;;;;;;;;;;5052014;28;20076;-56
2022/08/06 14:24:28;;;;;;;9.90;3.20;;;;;;;;;;5051934;28;20029;-50
2022/08/06 14:26:54;;;;;;;5.88;2.75;;;;;;;;;;5052229;28;20036;-55
2022/08/06 14:29:19;;;;;;;17.42;4.05;;;;;;;;;;5052109;28;20025;-41
2022/08/06 14:31:45;;;;;;;5.75;3.10;;;;;;;;;;5051791;28;20444;-48
2022/08/06 14:34:10;;;;;;;20.20;3.83;;;;;;;;;;5051982;28;20094;-56
2022/08/06 14:36:37;;;;;;;9.38;3.35;;;;;;;;;;5052156;28;20028;-47
2022/08/06 14:39:03;;;;;;;8.07;3.17;;;;;;;;;;5051368;28;20465;-45
2022/08/06 14:46:57;;;;;;;19.88;3.65;;;;;;;;;;5051872;28;20043;-52
2022/08/06 14:49:22;;;;;;;6.63;3.10;;;;;;;;;;5051738;28;20500;-40
2022/08/06 14:51:48;;;;;;;12.45;3.67;;;;;;;;;;5033765;28;20059;-41
2022/08/06 14:54:15;;;;;;;13.13;3.67;;;;;;;;;;5051493;28;20504;-40
2022/08/06 14:56:42;;;;;;;28.73;4.70;;;;;;;;;;5055517;28;20090;-40
2022/08/06 14:59:07;;;;;;;30.80;4.78;;;;;;;;;;5055521;28;20023;-40
2022/08/06 15:01:33;;;;;;;19.45;3.92;;;;;;;;;;5055447;28;20101;-40
2022/08/06 15:03:58;;;;;;;16.25;3.58;;;;;;;;;;5037431;28;20036;-40
2022/08/06 15:06:24;;;;;;;17.52;3.78;;;;;;;;;;5055510;28;20029;-41
2022/08/06 15:08:49;;;;;;;26.13;4.47;;;;;;;;;;5054646;28;20481;-41